createdAt,value
2019-03-20T00:01:00.611Z,2.13
2019-03-20T00:06:00.525Z,8.73
2019-03-20T00:11:00.163Z,3.13
2019-03-20T00:15:59.787Z,6.50
2019-03-20T00:20:59.564Z,5.33
2019-03-20T00:25:59.263Z,7.23
2019-03-20T00:30:59.155Z,4.60
2019-03-20T00:35:58.847Z,6.13
2019-03-20T00:40:58.494Z,3.50
2019-03-20T00:45:58.155Z,2.30
2019-03-20T00:50:57.799Z,4.30
2019-03-20T00:56:09.903Z,3.40
2019-03-20T01:01:09.615Z,2.97
2019-03-20T01:06:09.492Z,3.47
2019-03-20T01:11:09.127Z,4.10
2019-03-20T01:16:08.830Z,5.63
2019-03-20T01:21:08.475Z,3.00
2019-03-20T01:26:08.123Z,2.70
2019-03-20T01:31:07.991Z,6.57
2019-03-20T01:36:07.634Z,3.43
2019-03-20T01:41:07.287Z,3.10
2019-03-20T01:46:06.975Z,4.40
2019-03-20T01:51:17.967Z,2.43
2019-03-20T01:56:17.692Z,4.43
2019-03-20T02:01:17.715Z,3.03
2019-03-20T02:06:17.374Z,1.43
2019-03-20T02:11:17.010Z,7.90
2019-03-20T02:16:16.655Z,5.23
2019-03-20T02:21:16.391Z,4.37
2019-03-20T02:26:16.274Z,4.00
2019-03-20T02:31:15.916Z,3.53
2019-03-20T02:36:15.664Z,2.60
2019-03-20T02:41:15.396Z,4.97
2019-03-20T02:46:34.292Z,2.83
2019-03-20T02:51:34.236Z,2.00
2019-03-20T02:56:33.886Z,3.07
2019-03-20T03:01:33.537Z,6.50
2019-03-20T03:06:33.246Z,2.70
2019-03-20T03:11:33.299Z,12.03
2019-03-20T03:16:32.935Z,8.33
2019-03-20T03:21:32.592Z,2.90
2019-03-20T03:26:32.271Z,4.00
2019-03-20T03:31:31.929Z,2.40
2019-03-20T03:36:31.816Z,3.13
2019-03-20T03:41:32.432Z,1.70
2019-03-20T03:46:32.332Z,4.60
2019-03-20T03:51:32.319Z,3.33
2019-03-20T03:56:32.028Z,2.23
2019-03-20T04:01:31.702Z,3.10
2019-03-20T04:06:35.957Z,5.13
2019-03-20T04:11:33.455Z,2.50
2019-03-20T04:16:33.112Z,11.70
2019-03-20T04:21:32.743Z,6.30
2019-03-20T04:26:32.407Z,6.47
2019-03-20T04:31:32.347Z,5.37
2019-03-20T04:36:32.339Z,2.70
2019-03-20T04:41:31.975Z,8.70
2019-03-20T04:46:31.622Z,3.90
2019-03-20T04:51:32.351Z,5.00
2019-03-20T04:56:31.979Z,14.03
2019-03-20T05:01:31.619Z,8.90
2019-03-20T05:06:31.271Z,4.00
2019-03-20T05:11:31.220Z,6.97
2019-03-20T05:16:31.116Z,5.73
2019-03-20T05:21:30.764Z,4.23
2019-03-20T05:26:30.768Z,6.87
2019-03-20T05:31:30.466Z,11.07
2019-03-20T05:36:30.359Z,11.30
2019-03-20T05:41:30.017Z,9.23
2019-03-20T05:46:29.747Z,8.13
2019-03-20T05:51:29.679Z,14.77
2019-03-20T05:56:29.347Z,16.93
2019-03-20T06:01:29.315Z,12.67
2019-03-20T06:06:29.007Z,16.20
2019-03-20T06:11:28.656Z,13.37
2019-03-20T06:16:28.299Z,13.60
2019-03-20T06:21:28.027Z,20.43
2019-03-20T06:26:27.711Z,15.90
2019-03-20T06:31:27.365Z,19.53
2019-03-20T06:36:28.314Z,18.77
2019-03-20T06:41:28.163Z,16.43
2019-03-20T06:46:27.824Z,21.23
2019-03-20T06:51:27.712Z,19.07
2019-03-20T06:56:27.367Z,18.03
2019-03-20T07:01:28.979Z,24.00
2019-03-20T07:06:51.322Z,20.07
2019-03-20T07:11:51.292Z,16.90
2019-03-20T07:16:51.230Z,19.00
2019-03-20T07:21:51.170Z,25.60
2019-03-20T07:26:51.080Z,18.53
2019-03-20T07:31:51.055Z,25.43
2019-03-20T07:36:50.706Z,20.73
2019-03-20T07:41:50.340Z,21.80
2019-03-20T07:46:50.006Z,20.57
2019-03-20T07:51:49.660Z,24.50
2019-03-20T07:56:49.291Z,22.60
2019-03-20T08:01:48.947Z,21.67
2019-03-20T08:06:48.588Z,29.73
2019-03-20T08:11:48.396Z,28.27
2019-03-20T08:16:48.147Z,23.23
2019-03-20T08:21:47.803Z,26.63
2019-03-20T08:26:47.447Z,33.13
2019-03-20T08:31:47.454Z,16.70
2019-03-20T08:36:47.111Z,24.53
2019-03-20T08:41:46.785Z,33.00
2019-03-20T08:46:46.761Z,22.93
2019-03-20T08:51:46.422Z,29.43
2019-03-20T08:56:47.111Z,26.40
2019-03-20T09:01:47.027Z,27.33
2019-03-20T09:06:46.667Z,21.87
2019-03-20T09:11:46.323Z,24.17
2019-03-20T09:16:46.203Z,27.13
2019-03-20T09:21:46.161Z,19.93
2019-03-20T09:26:47.125Z,19.70
2019-03-20T09:31:47.371Z,23.43
2019-03-20T09:36:47.295Z,24.77
2019-03-20T09:41:46.951Z,21.13
2019-03-20T09:46:46.637Z,23.40
2019-03-20T09:51:46.296Z,19.63
2019-03-20T09:56:45.971Z,15.60
2019-03-20T10:01:45.767Z,16.80
2019-03-20T10:06:45.407Z,16.17
2019-03-20T10:11:45.412Z,12.77
2019-03-20T10:16:45.063Z,20.13
2019-03-20T10:21:44.728Z,15.33
2019-03-20T10:26:44.622Z,8.20
2019-03-20T10:31:44.331Z,27.47
2019-03-20T10:36:44.035Z,28.50
2019-03-20T10:41:43.756Z,19.40
2019-03-20T10:46:43.501Z,19.80
2019-03-20T10:51:43.174Z,17.00
2019-03-20T10:56:43.095Z,16.07
2019-03-20T11:01:43.072Z,17.53
2019-03-20T11:06:42.895Z,18.50
2019-03-20T11:11:42.587Z,17.30
2019-03-20T11:16:42.688Z,13.60
2019-03-20T11:21:42.409Z,15.37
2019-03-20T11:26:42.367Z,18.03
2019-03-20T11:31:42.115Z,18.47
2019-03-20T11:36:41.787Z,17.90
2019-03-20T11:41:41.429Z,16.60
2019-03-20T11:46:41.185Z,19.60
2019-03-20T11:51:40.823Z,15.63
2019-03-20T11:56:40.646Z,18.37
2019-03-20T12:01:40.311Z,17.87
2019-03-20T12:06:40.213Z,15.23
2019-03-20T12:11:45.869Z,20.83
2019-03-20T12:16:41.860Z,20.27
2019-03-20T12:21:41.784Z,19.57
2019-03-20T12:27:00.655Z,21.40
2019-03-20T12:32:00.596Z,27.63
2019-03-20T12:37:00.273Z,25.20
2019-03-20T12:42:00.283Z,19.77
2019-03-20T12:47:00.045Z,24.87
2019-03-20T12:51:59.686Z,17.97
2019-03-20T12:56:59.431Z,19.47
2019-03-20T13:01:59.164Z,19.20
2019-03-20T13:06:59.151Z,13.93
2019-03-20T13:11:58.794Z,19.50
2019-03-20T13:16:58.455Z,28.33
2019-03-20T13:21:58.183Z,27.30
2019-03-20T13:26:57.826Z,31.70
2019-03-20T13:31:57.551Z,28.90
2019-03-20T13:36:57.242Z,27.30
2019-03-20T13:41:56.917Z,31.23
2019-03-20T13:46:56.920Z,31.30
2019-03-20T13:51:56.603Z,28.47
2019-03-20T13:56:56.276Z,31.43
2019-03-20T14:01:55.923Z,26.27
2019-03-20T14:06:55.599Z,25.47
2019-03-20T14:11:55.251Z,29.53
2019-03-20T14:16:55.010Z,32.30
2019-03-20T14:21:54.931Z,33.70
2019-03-20T14:26:54.588Z,27.60
2019-03-20T14:31:54.227Z,23.70
2019-03-20T14:36:53.879Z,28.50
2019-03-20T14:41:53.544Z,25.43
2019-03-20T14:46:53.238Z,22.80
2019-03-20T14:51:52.915Z,26.23
2019-03-20T14:56:52.566Z,27.67
2019-03-20T15:01:52.251Z,28.93
2019-03-20T15:06:51.917Z,32.00
2019-03-20T15:11:51.677Z,26.60
2019-03-20T15:16:51.343Z,31.77
2019-03-20T15:21:51.039Z,27.77
2019-03-20T15:26:50.711Z,28.10
2019-03-20T15:31:50.519Z,26.63
2019-03-20T15:36:50.167Z,20.57
2019-03-20T15:41:49.807Z,23.37
2019-03-20T15:46:49.515Z,27.10
2019-03-20T15:51:49.203Z,30.07
2019-03-20T15:56:48.934Z,27.43
2019-03-20T16:01:48.615Z,29.10
2019-03-20T16:06:48.599Z,23.67
2019-03-20T16:11:48.615Z,27.87
2019-03-20T16:16:48.321Z,29.87
2019-03-20T16:21:47.999Z,22.80
2019-03-20T16:26:47.723Z,25.17
2019-03-20T16:31:47.415Z,30.83
2019-03-20T16:36:47.074Z,27.93
2019-03-20T16:41:46.699Z,28.40
2019-03-20T16:46:46.370Z,25.87
2019-03-20T16:51:46.047Z,31.13
2019-03-20T16:56:45.722Z,40.17
2019-03-20T17:01:45.397Z,28.93
2019-03-20T17:06:45.099Z,30.57
2019-03-20T17:11:44.767Z,30.87
2019-03-20T17:16:45.092Z,26.83
2019-03-20T17:21:44.999Z,31.50
2019-03-20T17:26:44.935Z,30.70
2019-03-20T17:31:44.581Z,35.40
2019-03-20T17:36:44.231Z,32.93
2019-03-20T17:41:43.875Z,31.50
2019-03-20T17:46:43.986Z,37.40
2019-03-20T17:51:43.782Z,29.87
2019-03-20T17:56:43.443Z,24.93
2019-03-20T18:01:43.168Z,31.00
2019-03-20T18:06:43.413Z,35.33
2019-03-20T18:11:47.491Z,31.73
2019-03-20T18:16:44.467Z,28.30
2019-03-20T18:21:56.135Z,27.80
2019-03-20T18:26:55.801Z,33.37
2019-03-20T18:31:55.530Z,29.57
2019-03-20T18:36:55.321Z,30.17
2019-03-20T18:41:57.938Z,37.13
2019-03-20T18:46:56.664Z,29.30
2019-03-20T18:51:56.365Z,27.47
2019-03-20T18:56:56.099Z,35.53
2019-03-20T19:01:55.906Z,31.20
2019-03-20T19:06:55.797Z,28.37
2019-03-20T19:11:55.519Z,31.80
2019-03-20T19:16:55.487Z,33.60
2019-03-20T19:21:55.108Z,31.03
2019-03-20T19:26:55.840Z,27.50
2019-03-20T19:31:56.041Z,31.90
2019-03-20T19:36:56.536Z,30.70
2019-03-20T19:41:56.280Z,40.07
2019-03-20T19:46:56.450Z,32.30
2019-03-20T19:51:56.117Z,29.00
2019-03-20T19:56:55.807Z,31.95
2019-03-20T20:01:55.691Z,33.33
2019-03-20T20:06:55.339Z,39.13
2019-03-20T20:11:54.999Z,36.03
2019-03-20T20:16:54.662Z,40.30
2019-03-20T20:21:54.307Z,40.10
2019-03-20T20:26:53.955Z,38.20
2019-03-20T20:31:53.945Z,41.13
2019-03-20T20:36:53.592Z,42.47
2019-03-20T20:41:53.261Z,37.93
2019-03-20T20:46:52.938Z,40.57
2019-03-20T20:51:52.611Z,47.63
2019-03-20T20:56:52.282Z,38.83
2019-03-20T21:01:52.311Z,47.00
2019-03-20T21:06:51.972Z,51.13
2019-03-20T21:11:51.647Z,36.27
2019-03-20T21:16:51.867Z,37.77
2019-03-20T21:22:23.944Z,41.67
2019-03-20T21:28:02.888Z,41.57
2019-03-20T21:33:03.727Z,39.50
2019-03-20T21:38:12.053Z,46.77
2019-03-20T21:43:58.283Z,41.87
2019-03-20T21:48:58.481Z,43.03
2019-03-20T21:54:40.643Z,53.30
2019-03-20T22:00:32.392Z,41.47
2019-03-20T22:06:16.589Z,47.60
2019-03-20T22:11:46.399Z,45.07
2019-03-20T22:17:26.715Z,44.47
2019-03-20T22:23:01.151Z,43.60
2019-03-20T22:28:23.604Z,51.70
2019-03-20T22:33:59.439Z,45.30
2019-03-20T22:39:42.808Z,46.63
2019-03-20T22:44:56.916Z,58.30
2019-03-20T22:50:20.483Z,47.43
2019-03-20T22:55:41.615Z,53.53
2019-03-20T23:00:41.979Z,55.73
2019-03-20T23:05:42.638Z,45.50
2019-03-20T23:10:42.881Z,54.23
2019-03-20T23:15:54.725Z,52.67
2019-03-20T23:20:55.259Z,50.30
2019-03-20T23:25:55.719Z,46.60
2019-03-20T23:30:56.271Z,39.80
2019-03-20T23:35:56.471Z,68.73
2019-03-20T23:40:56.759Z,49.07
2019-03-20T23:45:57.080Z,44.57
2019-03-20T23:51:01.018Z,46.40
2019-03-20T23:56:01.223Z,48.93
